KPHN

St Clair County International Airport

Port Huron, Michigan, USA
METAR KPHN 170315Z AUTO 21006KT 10SM OVC065 09/M02 A2995 RMK AO2
Observed Flight Rules
Oct-17 @ 03:15 UTC (13 minutes ago) Visual Flight Rules
Wind Visibility Clouds
210° at 6 knots 10 miles
  • Overcast at 6,500' AGL
Temperatures Readings
Current 9°C / 48°F
Dewpoint -2°C / 28°F
Humidity 46%
Altimeter 29.95" Hg
Pressure 1014 hPa
Elevation 198
METAR KPHN 170315Z AUTO 21006KT 10SM OVC065 09/M02 A2995 RMK AO2
Observed Flight Rules
Oct-17 @ 03:15 UTC
(13 minutes ago)
VFR
Wind Visibility
210° at 6 knots 10 miles
Clouds
  • Overcast at 6,500' AGL
Temperature Dewpoint
9°C / 48°F -2°C / 28°F
Humidity Altimeter Pressure
46% 29.95" Hg 1014 hPa